Etusivu
METAR-TAF:

METAR-TAF

Lentoasemat :

Boscobel Airport

Boscobel, Wisconsin, Yhdysvallat

Leveyspiiri: 43-09-22N, Pituuspiiri: 090-40-39W, korkeus merenpinnasta: 205 m

Tämänhetkinen sää

Tämä raportti tehtiin 48 minuuttia sitten, kello 08.53 UTC
Tuuli 6 kn etelästä
Lämpötila -9°C
Kosteus 57%
Ilmanpaine 1021 hPa
Näkyvyys: 16.1 km
selkeää

METAR: KOVS 130853Z AUTO 19006KT 10SM CLR M09/M16 A3015 RMK AO2 SLP223 T10891156 58039

Aika: 03:41 (09:41 UTC)


TAF: puuttuu

Säähavainnot ja -ennusteet yli 4000 lentoasemalta (METAR- ja TAF-raportit).

Käytössä olevat sääasemat on merkitty karttaan keltaisilla ja punaisilla pisteillä.

Aseta hiiri pisteen päälle nähdäksesi sääaseman nimen.

Klikkaa sitten nähdäksesi säähavainnot ja -ennusteet.

Kartan vaihtaminen: klikkaa mustalla rastilla varustettuja vihreitä pisteitä, niin voit zoomata sisään; viivalla varustettua vihreää pistettä, niin voit zoomata ulos tai vihreitä nuolia, niin pääset viereisille kartoille.


METAR-TAF: